createdAt,value
2018-04-12T00:00:16.392Z,13.60
2018-04-12T00:02:43.970Z,13.60
2018-04-12T00:05:11.480Z,13.50
2018-04-12T00:07:39.033Z,13.50
2018-04-12T00:10:07.294Z,13.40
2018-04-12T00:12:34.934Z,13.30
2018-04-12T00:15:02.543Z,13.30
2018-04-12T00:17:30.046Z,13.30
2018-04-12T00:19:57.580Z,13.20
2018-04-12T00:22:25.092Z,13.20
2018-04-12T00:24:52.793Z,13.20
2018-04-12T00:27:20.534Z,13.10
2018-04-12T00:29:48.995Z,13.00
2018-04-12T00:32:17.417Z,13.00
2018-04-12T00:34:45.493Z,13.00
2018-04-12T00:37:13.223Z,13.00
2018-04-12T00:39:40.928Z,12.90
2018-04-12T00:42:08.661Z,12.90
2018-04-12T00:44:36.384Z,12.90
2018-04-12T00:47:04.031Z,12.90
2018-04-12T00:49:31.716Z,12.90
2018-04-12T00:51:59.370Z,12.90
2018-04-12T00:54:27.976Z,12.90
2018-04-12T00:56:55.694Z,12.80
2018-04-12T00:59:23.288Z,12.80
2018-04-12T01:01:50.992Z,12.80
2018-04-12T01:04:18.647Z,12.80
2018-04-12T01:06:46.311Z,12.80
2018-04-12T01:09:14.005Z,12.70
2018-04-12T01:11:41.713Z,12.70
2018-04-12T01:14:09.398Z,12.70
2018-04-12T01:16:37.156Z,12.70
2018-04-12T01:19:04.793Z,12.60
2018-04-12T01:21:32.421Z,12.60
2018-04-12T01:24:00.039Z,12.50
2018-04-12T01:26:29.473Z,12.50
2018-04-12T01:28:57.169Z,12.40
2018-04-12T01:31:24.871Z,12.40
2018-04-12T01:33:52.533Z,12.40
2018-04-12T01:36:20.149Z,12.40
2018-04-12T01:38:47.840Z,12.40
2018-04-12T01:41:17.239Z,12.30
2018-04-12T01:43:44.991Z,12.30
2018-04-12T01:46:12.709Z,12.30
2018-04-12T01:48:40.456Z,12.20
2018-04-12T01:51:08.920Z,12.20
2018-04-12T01:53:36.682Z,12.20
2018-04-12T01:56:05.890Z,12.10
2018-04-12T01:58:34.521Z,12.10
2018-04-12T02:01:02.150Z,12.10
2018-04-12T02:03:29.842Z,12.10
2018-04-12T02:05:57.636Z,12.10
2018-04-12T02:08:25.328Z,12.00
2018-04-12T02:10:54.450Z,12.00
2018-04-12T02:13:22.933Z,12.00
2018-04-12T02:15:50.487Z,11.90
2018-04-12T02:18:18.239Z,12.00
2018-04-12T02:20:46.586Z,11.90
2018-04-12T02:23:15.804Z,11.90
2018-04-12T02:25:43.561Z,11.90
2018-04-12T02:28:11.236Z,11.80
2018-04-12T02:30:39.527Z,11.80
2018-04-12T02:33:08.562Z,11.80
2018-04-12T02:35:36.217Z,11.80
2018-04-12T02:38:03.973Z,11.80
2018-04-12T02:40:33.691Z,11.70
2018-04-12T02:43:01.995Z,11.70
2018-04-12T02:45:30.456Z,11.60
2018-04-12T02:47:58.147Z,11.60
2018-04-12T02:50:26.656Z,11.60
2018-04-12T02:52:54.438Z,11.60
2018-04-12T02:55:22.132Z,11.60
2018-04-12T02:57:49.783Z,11.60
2018-04-12T03:00:17.452Z,11.60
2018-04-12T03:02:45.050Z,11.60
2018-04-12T03:05:12.710Z,11.60
2018-04-12T03:07:40.466Z,11.60
2018-04-12T03:10:08.934Z,11.60
2018-04-12T03:12:36.644Z,11.60
2018-04-12T03:15:04.420Z,11.60
2018-04-12T03:17:33.351Z,11.60
2018-04-12T03:20:01.185Z,11.60
2018-04-12T03:22:28.884Z,11.50
2018-04-12T03:24:57.430Z,11.50
2018-04-12T03:27:59.212Z,11.60
2018-04-12T03:30:26.895Z,11.50
2018-04-12T03:32:54.585Z,11.60
2018-04-12T03:35:22.992Z,11.60
2018-04-12T03:37:50.685Z,11.60
2018-04-12T03:40:18.329Z,11.60
2018-04-12T03:42:46.059Z,11.60
2018-04-12T03:45:13.804Z,11.60
2018-04-12T03:47:42.593Z,11.70
2018-04-12T03:50:11.023Z,11.60
2018-04-12T03:52:38.686Z,11.60
2018-04-12T03:55:06.485Z,11.70
2018-04-12T03:57:34.205Z,11.70
2018-04-12T04:00:02.009Z,11.70
2018-04-12T04:02:29.894Z,11.70
2018-04-12T04:04:57.535Z,11.80
2018-04-12T04:07:26.024Z,11.80
2018-04-12T04:09:54.610Z,11.80
2018-04-12T04:12:22.569Z,11.80
2018-04-12T04:18:05.082Z,11.80
2018-04-12T04:20:44.599Z,11.90
2018-04-12T04:23:14.296Z,11.90
2018-04-12T04:25:41.964Z,11.90
2018-04-12T04:28:09.753Z,12.00
2018-04-12T04:30:37.475Z,12.00
2018-04-12T04:33:05.114Z,12.00
2018-04-12T04:35:33.391Z,12.10
2018-04-12T04:38:01.059Z,12.10
2018-04-12T04:40:29.795Z,12.20
2018-04-12T04:42:57.526Z,12.20
2018-04-12T04:45:26.004Z,12.20
2018-04-12T04:47:54.405Z,12.30
2018-04-12T04:50:22.167Z,12.20
2018-04-12T04:52:49.785Z,12.30
2018-04-12T04:55:17.522Z,12.30
2018-04-12T04:57:45.221Z,12.40
2018-04-12T05:00:13.128Z,12.40
2018-04-12T05:02:40.870Z,12.50
2018-04-12T05:05:10.199Z,12.50
2018-04-12T05:07:37.941Z,12.50
2018-04-12T05:10:05.711Z,12.60
2018-04-12T05:12:34.289Z,12.70
2018-04-12T05:15:02.091Z,12.70
2018-04-12T05:17:29.935Z,12.80
2018-04-12T05:19:58.503Z,13.00
2018-04-12T05:22:27.393Z,13.10
2018-04-12T05:24:55.189Z,13.20
2018-04-12T05:27:23.641Z,13.40
2018-04-12T05:29:51.304Z,13.60
2018-04-12T05:32:19.015Z,13.80
2018-04-12T05:34:47.525Z,14.00
2018-04-12T05:37:16.487Z,14.10
2018-04-12T05:39:44.280Z,14.10
2018-04-12T05:42:13.450Z,14.30
2018-04-12T05:44:41.177Z,14.30
2018-04-12T05:47:08.808Z,14.50
2018-04-12T05:49:37.411Z,14.60
2018-04-12T05:52:05.265Z,14.70
2018-04-12T05:54:33.198Z,14.80
2018-04-12T05:57:00.953Z,14.90
2018-04-12T05:59:29.691Z,15.00
2018-04-12T06:01:58.294Z,15.10
2018-04-12T06:04:30.490Z,15.20
2018-04-12T06:06:58.334Z,15.30
2018-04-12T06:09:26.099Z,15.50
2018-04-12T06:11:55.029Z,15.50
2018-04-12T06:14:22.828Z,15.60
2018-04-12T06:16:50.459Z,15.70
2018-04-12T06:19:18.223Z,15.80
2018-04-12T06:21:46.449Z,15.90
2018-04-12T06:24:14.188Z,16.10
2018-04-12T06:26:41.906Z,16.20
2018-04-12T06:29:09.564Z,16.30
2018-04-12T06:31:37.956Z,16.40
2018-04-12T06:34:05.683Z,16.40
2018-04-12T06:36:36.139Z,16.50
2018-04-12T06:39:04.017Z,16.50
2018-04-12T06:41:32.535Z,16.60
2018-04-12T06:44:01.061Z,16.70
2018-04-12T06:46:28.718Z,16.70
2018-04-12T06:48:56.464Z,16.80
2018-04-12T06:51:24.320Z,16.90
2018-04-12T06:53:53.825Z,17.00
2018-04-12T06:56:21.616Z,17.00
2018-04-12T06:58:49.324Z,17.10
2018-04-12T07:01:17.870Z,17.40
2018-04-12T07:03:45.557Z,17.30
2018-04-12T07:06:13.539Z,17.50
2018-04-12T07:08:41.260Z,17.50
2018-04-12T07:11:08.998Z,17.60
2018-04-12T07:13:36.678Z,17.60
2018-04-12T07:16:04.293Z,17.70
2018-04-12T07:18:32.713Z,17.80
2018-04-12T07:21:01.150Z,17.80
2018-04-12T07:23:28.801Z,17.90
2018-04-12T07:25:57.201Z,18.00
2018-04-12T07:28:25.503Z,18.10
2018-04-12T07:30:53.142Z,18.20
2018-04-12T07:33:21.694Z,18.40
2018-04-12T07:35:49.405Z,18.40
2018-04-12T07:38:17.260Z,18.50
2018-04-12T07:40:44.988Z,18.60
2018-04-12T07:43:12.922Z,18.70
2018-04-12T07:45:42.056Z,18.80
2018-04-12T07:48:09.906Z,18.80
2018-04-12T07:50:40.099Z,18.90
2018-04-12T07:53:07.893Z,19.10
2018-04-12T07:55:35.569Z,19.20
2018-04-12T07:58:03.509Z,19.30
2018-04-12T08:00:31.440Z,19.40
2018-04-12T08:02:59.952Z,19.60
2018-04-12T08:05:27.693Z,19.60
2018-04-12T08:07:56.195Z,19.80
2018-04-12T08:10:24.145Z,19.90
2018-04-12T08:12:52.071Z,20.00
2018-04-12T08:15:20.829Z,20.20
2018-04-12T08:17:48.641Z,20.20
2018-04-12T08:20:17.376Z,20.20
2018-04-12T08:22:47.330Z,20.30
2018-04-12T08:25:16.265Z,20.30
2018-04-12T08:27:44.061Z,20.40
2018-04-12T08:30:11.831Z,20.40
2018-04-12T08:32:40.954Z,20.50
2018-04-12T08:35:08.727Z,20.50
2018-04-12T08:37:37.285Z,20.60
2018-04-12T08:40:05.103Z,20.50
2018-04-12T08:42:32.896Z,20.60
2018-04-12T08:45:00.586Z,20.60
2018-04-12T08:47:28.232Z,20.60
2018-04-12T08:49:55.929Z,20.70
2018-04-12T08:52:25.867Z,20.80
2018-04-12T08:54:53.519Z,20.70
2018-04-12T08:57:22.112Z,20.90
2018-04-12T08:59:50.092Z,20.90
2018-04-12T09:02:18.844Z,21.00
2018-04-12T09:04:46.736Z,21.10
2018-04-12T09:07:14.624Z,21.30
2018-04-12T09:09:42.388Z,21.40
2018-04-12T09:12:10.132Z,21.60
2018-04-12T09:14:37.962Z,21.80
2018-04-12T09:17:05.825Z,22.00
2018-04-12T09:19:33.616Z,22.10
2018-04-12T09:22:01.367Z,22.20
2018-04-12T09:24:29.045Z,22.30
2018-04-12T09:26:56.848Z,22.30
2018-04-12T09:29:24.488Z,22.30
2018-04-12T09:31:52.917Z,22.50
2018-04-12T09:34:20.643Z,22.40
2018-04-12T09:36:48.347Z,22.60
2018-04-12T09:39:16.120Z,22.70
2018-04-12T09:41:44.645Z,23.00
2018-04-12T09:44:12.521Z,22.90
2018-04-12T09:46:40.953Z,23.20
2018-04-12T09:49:08.654Z,23.10
2018-04-12T09:51:36.399Z,23.30
2018-04-12T09:54:04.287Z,23.50
2018-04-12T09:56:31.955Z,23.60
2018-04-12T09:58:59.602Z,23.80
2018-04-12T10:01:27.401Z,23.80
2018-04-12T10:03:55.979Z,24.00
2018-04-12T10:06:23.639Z,24.20
2018-04-12T10:08:56.873Z,24.20
2018-04-12T10:11:24.398Z,24.30
2018-04-12T10:13:51.943Z,24.40
2018-04-12T10:16:19.462Z,24.50
2018-04-12T10:18:47.008Z,24.70
2018-04-12T10:21:14.514Z,24.90
2018-04-12T10:23:42.019Z,24.90
2018-04-12T10:26:09.555Z,25.00
2018-04-12T10:28:37.064Z,25.00
2018-04-12T10:31:04.607Z,25.20
2018-04-12T10:33:33.207Z,25.40
2018-04-12T10:36:00.759Z,25.40
2018-04-12T10:38:28.281Z,25.60
2018-04-12T10:40:55.819Z,25.60
2018-04-12T10:43:24.116Z,25.80
2018-04-12T10:45:51.659Z,25.70
2018-04-12T10:48:19.181Z,25.90
2018-04-12T10:50:46.734Z,26.00
2018-04-12T10:53:14.237Z,26.10
2018-04-12T10:55:41.742Z,26.20
2018-04-12T10:58:09.288Z,26.20
2018-04-12T11:00:36.832Z,26.40
2018-04-12T11:03:04.380Z,26.60
2018-04-12T11:05:31.891Z,26.50
2018-04-12T11:07:59.439Z,26.50
2018-04-12T11:10:26.952Z,26.50
2018-04-12T11:12:54.632Z,26.50
2018-04-12T11:15:22.159Z,26.50
2018-04-12T11:17:49.761Z,26.60
2018-04-12T11:20:17.262Z,26.80
2018-04-12T11:22:44.895Z,26.80
2018-04-12T11:25:12.451Z,26.80
2018-04-12T11:27:39.969Z,26.80
2018-04-12T11:30:07.588Z,26.90
2018-04-12T11:32:35.092Z,26.80
2018-04-12T11:35:02.700Z,26.80
2018-04-12T11:37:30.283Z,26.90
2018-04-12T11:39:57.892Z,26.90
2018-04-12T11:42:25.418Z,26.90
2018-04-12T11:44:52.989Z,27.00
2018-04-12T11:47:20.515Z,27.10
2018-04-12T11:49:48.099Z,27.10
2018-04-12T11:52:16.361Z,27.10
2018-04-12T11:54:43.947Z,27.10
2018-04-12T11:57:12.046Z,27.20
2018-04-12T11:59:39.620Z,27.20
2018-04-12T12:02:07.141Z,27.20
2018-04-12T12:04:34.744Z,27.30
2018-04-12T12:07:02.262Z,27.30
2018-04-12T12:09:29.773Z,27.40
2018-04-12T12:11:57.321Z,27.40
2018-04-12T12:14:24.827Z,27.50
2018-04-12T12:16:53.146Z,27.10
2018-04-12T12:19:21.439Z,26.70
2018-04-12T12:21:49.028Z,26.60
2018-04-12T12:24:16.550Z,26.20
2018-04-12T12:26:44.104Z,25.90
2018-04-12T12:29:11.614Z,25.70
2018-04-12T12:31:39.163Z,25.60
2018-04-12T12:34:06.708Z,25.50
2018-04-12T12:36:34.225Z,25.40
2018-04-12T12:39:01.763Z,25.20
2018-04-12T12:41:29.277Z,25.10
2018-04-12T12:43:56.828Z,24.90
2018-04-12T12:46:24.358Z,24.70
2018-04-12T12:48:51.971Z,24.80
2018-04-12T12:51:19.467Z,24.70
2018-04-12T12:53:47.023Z,24.70
2018-04-12T12:56:15.106Z,24.60
2018-04-12T12:58:42.668Z,24.60
2018-04-12T13:01:10.174Z,24.50
2018-04-12T13:03:37.739Z,24.50
2018-04-12T13:06:05.254Z,24.60
2018-04-12T13:08:32.799Z,24.60
2018-04-12T13:11:00.351Z,24.60
2018-04-12T13:13:27.956Z,24.50
2018-04-12T13:15:55.485Z,24.50
2018-04-12T13:18:23.030Z,24.40
2018-04-12T13:20:50.589Z,24.40
2018-04-12T13:23:18.102Z,24.40
2018-04-12T13:25:45.652Z,24.40
2018-04-12T13:28:13.169Z,24.40
2018-04-12T13:30:40.698Z,24.30
2018-04-12T13:33:09.062Z,24.30
2018-04-12T13:35:36.539Z,24.20
2018-04-12T13:38:04.820Z,24.20
2018-04-12T13:40:33.138Z,24.20
2018-04-12T13:43:00.643Z,24.20
2018-04-12T13:45:28.325Z,24.30
2018-04-12T13:47:55.831Z,24.30
2018-04-12T13:50:23.380Z,24.30
2018-04-12T13:52:50.934Z,24.40
2018-04-12T13:55:18.498Z,24.40
2018-04-12T13:57:46.086Z,24.60
2018-04-12T14:00:13.614Z,24.80
2018-04-12T14:02:41.167Z,24.90
2018-04-12T14:05:08.716Z,24.90
2018-04-12T14:07:36.298Z,24.90
2018-04-12T14:10:04.308Z,24.80
2018-04-12T14:12:31.854Z,24.90
2018-04-12T14:14:59.364Z,24.90
2018-04-12T14:17:26.923Z,24.90
2018-04-12T14:19:54.435Z,24.80
2018-04-12T14:22:21.966Z,24.70
2018-04-12T14:24:49.483Z,24.70
2018-04-12T14:27:17.089Z,24.60
2018-04-12T14:29:44.653Z,24.50
2018-04-12T14:32:12.148Z,24.40
2018-04-12T14:34:39.705Z,24.30
2018-04-12T14:37:07.209Z,24.20
2018-04-12T14:39:34.751Z,24.10
2018-04-12T14:42:02.258Z,24.10
2018-04-12T14:44:29.852Z,24.00
2018-04-12T14:46:58.133Z,24.30
2018-04-12T14:49:26.501Z,24.40
2018-04-12T14:51:54.013Z,24.30
2018-04-12T14:54:21.577Z,24.40
2018-04-12T14:56:49.098Z,24.30
2018-04-12T14:59:16.644Z,24.30
2018-04-12T15:01:44.984Z,24.10
2018-04-12T15:04:12.520Z,24.00
2018-04-12T15:06:40.093Z,24.00
2018-04-12T15:09:07.636Z,23.90
2018-04-12T15:11:35.173Z,23.70
2018-04-12T15:14:02.736Z,23.60
2018-04-12T15:16:30.272Z,23.60
2018-04-12T15:18:58.567Z,23.60
2018-04-12T15:21:26.120Z,23.60
2018-04-12T15:23:53.632Z,23.70
2018-04-12T15:26:21.171Z,23.80
2018-04-12T15:28:48.681Z,23.60
2018-04-12T15:31:16.236Z,23.60
2018-04-12T15:33:43.759Z,23.60
2018-04-12T15:36:11.295Z,23.40
2018-04-12T15:38:38.815Z,23.20
2018-04-12T15:41:06.371Z,23.00
2018-04-12T15:43:33.878Z,22.90
2018-04-12T15:46:01.899Z,22.80
2018-04-12T15:48:29.458Z,22.80
2018-04-12T15:50:56.980Z,22.80
2018-04-12T15:53:24.548Z,22.80
2018-04-12T15:55:52.098Z,22.70
2018-04-12T15:58:19.636Z,22.60
2018-04-12T16:00:47.160Z,22.60
2018-04-12T16:03:14.722Z,22.50
2018-04-12T16:05:42.219Z,22.50
2018-04-12T16:08:09.756Z,22.50
2018-04-12T16:10:37.268Z,22.40
2018-04-12T16:13:04.819Z,22.40
2018-04-12T16:15:32.369Z,22.30
2018-04-12T16:18:00.036Z,22.30
2018-04-12T16:20:27.612Z,22.20
2018-04-12T16:22:55.202Z,22.10
2018-04-12T16:25:23.573Z,21.80
2018-04-12T16:27:52.020Z,21.70
2018-04-12T16:30:19.708Z,21.60
2018-04-12T16:32:47.429Z,21.50
2018-04-12T16:35:15.028Z,21.50
2018-04-12T16:37:42.728Z,21.40
2018-04-12T16:40:11.144Z,21.20
2018-04-12T16:42:38.824Z,21.20
2018-04-12T16:45:06.518Z,21.10
2018-04-12T16:47:34.134Z,21.00
2018-04-12T16:50:01.821Z,21.00
2018-04-12T16:52:29.611Z,21.00
2018-04-12T16:54:58.157Z,20.70
2018-04-12T16:57:25.972Z,20.70
2018-04-12T16:59:53.790Z,20.70
2018-04-12T17:02:21.389Z,20.60
2018-04-12T17:04:49.032Z,20.50
2018-04-12T17:07:16.644Z,20.40
2018-04-12T17:09:44.345Z,20.40
2018-04-12T17:12:12.036Z,20.30
2018-04-12T17:14:40.447Z,20.10
2018-04-12T17:17:08.227Z,20.10
2018-04-12T17:19:35.925Z,20.10
2018-04-12T17:22:03.713Z,20.00
2018-04-12T17:24:31.391Z,20.00
2018-04-12T17:26:59.103Z,19.90
2018-04-12T17:29:27.487Z,19.80
2018-04-12T17:31:55.189Z,19.70
2018-04-12T17:34:22.780Z,19.70
2018-04-12T17:36:50.745Z,19.60
2018-04-12T17:39:19.676Z,19.50
2018-04-12T17:41:47.559Z,19.50
2018-04-12T17:44:15.373Z,19.30
2018-04-12T17:46:43.035Z,19.20
2018-04-12T17:49:10.627Z,19.10
2018-04-12T17:51:38.182Z,19.00
2018-04-12T17:54:05.772Z,19.00
2018-04-12T17:56:33.380Z,18.90
2018-04-12T17:59:00.975Z,18.90
2018-04-12T18:01:28.541Z,18.80
2018-04-12T18:03:56.147Z,18.80
2018-04-12T18:06:23.709Z,18.70
2018-04-12T18:08:51.304Z,18.70
2018-04-12T18:11:18.904Z,18.70
2018-04-12T18:13:46.508Z,18.60
2018-04-12T18:16:14.079Z,18.60
2018-04-12T18:18:41.671Z,18.60
2018-04-12T18:21:09.252Z,18.50
2018-04-12T18:23:36.831Z,18.60
2018-04-12T18:26:04.384Z,18.50
2018-04-12T18:28:31.923Z,18.50
2018-04-12T18:31:00.286Z,18.40
2018-04-12T18:33:27.835Z,18.30
2018-04-12T18:35:55.461Z,18.40
2018-04-12T18:38:23.833Z,18.30
2018-04-12T18:40:55.180Z,18.30
2018-04-12T18:43:23.785Z,18.20
2018-04-12T18:45:51.428Z,18.10
2018-04-12T18:48:18.969Z,18.10
2018-04-12T18:50:47.542Z,18.00
2018-04-12T18:53:15.153Z,18.00
2018-04-12T18:55:42.694Z,17.90
2018-04-12T18:58:10.310Z,17.90
2018-04-12T19:00:37.903Z,17.80
2018-04-12T19:03:05.594Z,17.90
2018-04-12T19:05:34.725Z,17.80
2018-04-12T19:08:03.070Z,17.80
2018-04-12T19:10:31.446Z,17.80
2018-04-12T19:12:59.888Z,17.70
2018-04-12T19:15:27.468Z,17.70
2018-04-12T19:17:55.898Z,17.70
2018-04-12T19:20:24.287Z,17.60
2018-04-12T19:22:53.677Z,17.60
2018-04-12T19:25:21.278Z,17.50
2018-04-12T19:27:49.695Z,17.60
2018-04-12T19:30:17.265Z,17.50
2018-04-12T19:32:44.908Z,17.50
2018-04-12T19:35:12.572Z,17.50
2018-04-12T19:37:40.188Z,17.50
2018-04-12T19:40:07.817Z,17.50
2018-04-12T19:42:35.409Z,17.40
2018-04-12T19:45:03.810Z,17.40
2018-04-12T19:47:31.432Z,17.30
2018-04-12T19:49:58.991Z,17.30
2018-04-12T19:52:27.385Z,17.20
2018-04-12T19:54:55.027Z,17.20
2018-04-12T19:57:22.653Z,17.20
2018-04-12T19:59:51.146Z,17.10
2018-04-12T20:02:18.751Z,17.10
2018-04-12T20:04:47.170Z,17.10
2018-04-12T20:07:14.765Z,17.00
2018-04-12T20:09:43.593Z,17.10
2018-04-12T20:12:11.134Z,17.00
2018-04-12T20:14:38.721Z,17.00
2018-04-12T20:17:06.317Z,17.00
2018-04-12T20:19:33.957Z,17.00
2018-04-12T20:22:01.495Z,17.00
2018-04-12T20:24:30.065Z,17.00
2018-04-12T20:26:57.774Z,17.00
2018-04-12T20:29:25.376Z,17.00
2018-04-12T20:31:53.001Z,17.00
2018-04-12T20:34:20.668Z,17.00
2018-04-12T20:36:48.268Z,17.00
2018-04-12T20:39:15.856Z,17.00
2018-04-12T20:41:43.413Z,17.00
2018-04-12T20:44:11.047Z,16.90
2018-04-12T20:46:39.406Z,16.80
2018-04-12T20:49:06.954Z,16.70
2018-04-12T20:51:34.523Z,16.80
2018-04-12T20:54:02.138Z,16.70
2018-04-12T20:56:29.700Z,16.70
2018-04-12T20:58:57.284Z,16.60
2018-04-12T21:01:24.868Z,16.70
2018-04-12T21:03:52.406Z,16.70
2018-04-12T21:06:19.980Z,16.70
2018-04-12T21:08:47.538Z,16.60
2018-04-12T21:11:15.896Z,16.50
2018-04-12T21:13:43.446Z,16.50
2018-04-12T21:16:11.027Z,16.40
2018-04-12T21:18:38.566Z,16.40
2018-04-12T21:21:06.166Z,16.30
2018-04-12T21:23:33.709Z,16.30
2018-04-12T21:26:01.268Z,16.20
2018-04-12T21:28:30.664Z,16.10
2018-04-12T21:30:58.189Z,16.10
2018-04-12T21:33:25.786Z,16.00
2018-04-12T21:35:53.295Z,16.00
2018-04-12T21:38:20.888Z,15.90
2018-04-12T21:40:48.443Z,15.90
2018-04-12T21:43:16.022Z,15.90
2018-04-12T21:45:43.568Z,15.80
2018-04-12T21:48:11.130Z,15.80
2018-04-12T21:50:38.648Z,15.80
2018-04-12T21:53:06.997Z,15.80
2018-04-12T21:55:34.526Z,15.70
2018-04-12T21:58:02.115Z,15.70
2018-04-12T22:00:29.686Z,15.70
2018-04-12T22:02:57.237Z,15.70
2018-04-12T22:05:36.363Z,15.70
2018-04-12T22:08:03.877Z,15.60
2018-04-12T22:10:31.484Z,15.60
2018-04-12T22:12:59.019Z,15.60
2018-04-12T22:15:27.383Z,15.50
2018-04-12T22:17:54.898Z,15.50
2018-04-12T22:20:22.469Z,15.50
2018-04-12T22:22:50.761Z,15.50
2018-04-12T22:25:18.353Z,15.50
2018-04-12T22:27:45.900Z,15.50
2018-04-12T22:30:13.495Z,15.50
2018-04-12T22:32:41.034Z,15.50
2018-04-12T22:35:08.608Z,15.50
2018-04-12T22:37:36.143Z,15.50
2018-04-12T22:40:04.160Z,15.50
2018-04-12T22:42:31.696Z,15.40
2018-04-12T22:45:00.010Z,15.40
2018-04-12T22:50:19.117Z,15.30
2018-04-12T22:52:46.633Z,15.40
2018-04-12T22:55:14.143Z,15.40
2018-04-12T22:57:41.687Z,15.40
2018-04-12T23:00:09.834Z,15.40
2018-04-12T23:02:37.419Z,15.40
2018-04-12T23:05:04.955Z,15.40
2018-04-12T23:07:32.540Z,15.40
2018-04-12T23:10:00.076Z,15.40
2018-04-12T23:12:27.641Z,15.40
2018-04-12T23:14:55.954Z,15.40
2018-04-12T23:17:23.522Z,15.30
2018-04-12T23:19:51.068Z,15.30
2018-04-12T23:22:18.669Z,15.40
2018-04-12T23:24:46.269Z,15.40
2018-04-12T23:27:13.851Z,15.50
2018-04-12T23:29:41.385Z,15.60
2018-04-12T23:32:09.001Z,15.60
2018-04-12T23:34:36.587Z,15.70
2018-04-12T23:37:04.200Z,15.70
2018-04-12T23:39:31.744Z,15.70
2018-04-12T23:41:59.325Z,15.70
2018-04-12T23:44:26.911Z,15.70
2018-04-12T23:46:55.244Z,15.70
2018-04-12T23:49:22.853Z,15.60
2018-04-12T23:51:50.407Z,15.70
2018-04-12T23:54:17.973Z,15.60
2018-04-12T23:56:45.528Z,15.60
2018-04-12T23:59:13.167Z,15.60
